Time;durP1;ratioP1;P1;durP2;ratioP2;P2;SDS_P1;SDS_P2;PMS_P1;PMS_P2;Temp;Humidity;BMP_temperature;BMP_pressure;BME280_temperature;BME280_humidity;BME280_pressure;Samples;Min_cycle;Max_cycle;Signal;HPM_P1;HPM_P2
2023/02/26 00:00:42;;;;;;;4.30;2.00;;;-0.90;83.70;;;-1.48;77.47;97366.78;5039322;28;20475;-70
2023/02/26 00:03:10;;;;;;;3.93;1.97;;;-1.00;84.60;;;-1.71;77.67;97362.81;5061377;28;20910;-71
2023/02/26 00:05:37;;;;;;;3.60;2.20;;;-1.10;84.40;;;-1.78;77.78;97363.56;5046476;28;20446;-72
2023/02/26 00:08:04;;;;;;;3.13;2.00;;;-1.10;84.10;;;-1.79;78.00;97372.50;5063019;28;20449;-71
2023/02/26 00:10:32;;;;;;;2.00;1.80;;;-1.10;84.80;;;-1.79;77.24;97383.91;5035779;28;20477;-67
2023/02/26 00:13:01;;;;;;;3.10;2.07;;;-1.20;83.20;;;-1.74;77.53;97376.34;5063269;28;20445;-71
2023/02/26 00:15:29;;;;;;;2.30;1.70;;;-1.10;83.30;;;-1.91;76.93;97383.31;5045484;28;20476;-72
2023/02/26 00:18:03;;;;;;;7.40;2.20;;;-1.20;83.20;;;-1.88;77.06;97390.13;5046246;28;20437;-71
2023/02/26 00:20:31;;;;;;;3.80;2.20;;;-1.20;83.10;;;-1.83;77.83;97381.72;5062642;28;20815;-69
2023/02/26 00:22:59;;;;;;;4.77;2.03;;;-1.20;84.20;;;-1.82;77.79;97381.56;5047088;28;20634;-70
2023/02/26 00:25:26;;;;;;;2.03;1.83;;;-1.20;84.40;;;-1.95;78.62;97386.41;5062081;28;20490;-72
2023/02/26 00:27:55;;;;;;;4.20;2.40;;;-1.30;86.00;;;-1.94;79.43;97388.94;5047129;28;20463;-71
2023/02/26 00:30:24;;;;;;;3.90;2.20;;;-1.30;86.50;;;-2.00;79.59;97386.88;5047742;28;20461;-69
2023/02/26 00:32:52;;;;;;;2.20;2.10;;;-1.40;87.70;;;-1.97;80.06;97398.97;5047015;28;20504;-71
2023/02/26 00:35:20;;;;;;;4.90;2.63;;;-1.40;89.10;;;-2.10;80.91;97397.53;5062484;28;20488;-70
2023/02/26 00:38:03;;;;;;;2.83;2.23;;;-1.50;89.90;;;-2.11;80.90;97392.41;5061832;28;20449;-70
2023/02/26 00:40:40;;;;;;;4.20;2.47;;;-1.50;90.40;;;-2.03;81.19;97389.81;5047401;28;20505;-67
2023/02/26 00:43:12;;;;;;;6.50;2.77;;;-1.50;91.00;;;-2.05;80.65;97386.50;5047189;28;20535;-69
2023/02/26 00:45:47;;;;;;;4.23;2.10;;;-1.50;90.90;;;-2.14;81.42;97396.19;5045005;28;20449;-70
2023/02/26 00:48:31;;;;;;;6.97;2.60;;;-1.50;90.90;;;-2.05;81.30;97397.91;5035825;28;20461;-72
2023/02/26 00:51:06;;;;;;;2.27;1.90;;;-1.50;91.70;;;-2.15;81.47;97402.44;5046983;28;20510;-69
2023/02/26 00:53:42;;;;;;;3.13;2.57;;;-1.60;91.80;;;-2.16;81.71;97398.13;5047276;28;20447;-71
2023/02/26 00:56:09;;;;;;;4.20;2.77;;;-1.60;91.90;;;-2.26;82.04;97395.56;5053708;28;20464;-71
2023/02/26 00:58:36;;;;;;;2.97;2.67;;;-1.70;91.80;;;-2.22;82.21;97396.06;5060451;28;20684;-70
2023/02/26 01:01:05;;;;;;;3.37;2.77;;;-1.70;92.40;;;-2.25;82.18;97393.72;5056993;28;20446;-68
2023/02/26 01:03:34;;;;;;;6.90;3.17;;;-1.70;92.40;;;-2.30;82.49;97395.03;5051015;28;20476;-71
2023/02/26 01:06:01;;;;;;;4.03;3.57;;;-1.80;92.50;;;-2.23;81.95;97403.19;5046848;28;20444;-71
2023/02/26 01:08:34;;;;;;;4.90;3.03;;;-1.80;93.00;;;-2.30;82.69;97400.31;5066532;28;20457;-71
2023/02/26 01:11:01;;;;;;;5.30;3.23;;;-1.80;93.40;;;-2.24;82.00;97398.03;5050926;28;20444;-71
2023/02/26 01:13:29;;;;;;;4.23;3.57;;;-1.90;93.70;;;-2.36;82.71;97405.38;5051923;28;20448;-71
2023/02/26 01:16:07;;;;;;;5.13;3.50;;;-1.90;94.00;;;-2.48;83.23;97391.50;5049735;28;20509;-70
2023/02/26 01:18:43;;;;;;;4.10;2.83;;;-1.90;93.80;;;-2.61;82.50;97387.41;5053104;28;20457;-70
2023/02/26 01:21:17;;;;;;;3.10;2.80;;;-1.90;92.50;;;-2.56;81.83;97406.31;5068561;28;20471;-70
2023/02/26 01:23:50;;;;;;;4.70;3.00;;;-1.90;91.70;;;-2.76;81.50;97370.34;5054690;28;20525;-70
2023/02/26 01:26:23;;;;;;;4.53;2.63;;;-2.00;91.10;;;-2.62;80.77;97398.97;5051437;28;20513;-70
2023/02/26 01:28:51;;;;;;;6.33;3.00;;;-2.00;90.50;;;-2.55;80.41;97396.56;5051640;28;20510;-70
2023/02/26 01:31:34;;;;;;;2.70;2.40;;;-2.00;90.40;;;-2.56;80.62;97403.66;5050234;28;20492;-69
2023/02/26 01:34:07;;;;;;;3.17;2.87;;;-2.10;90.50;;;-2.57;80.47;97404.63;5050639;28;20548;-70
2023/02/26 01:36:42;;;;;;;3.90;2.87;;;-2.10;90.20;;;-2.72;80.94;97404.31;5065219;28;20488;-72
2023/02/26 01:39:20;;;;;;;5.03;2.47;;;-2.20;90.20;;;-2.78;80.74;97407.50;5066287;28;20524;-70
2023/02/26 01:41:51;;;;;;;9.57;2.63;;;-2.20;90.10;;;-2.78;79.48;97398.75;5064753;28;20810;-67
2023/02/26 01:44:26;;;;;;;3.73;2.30;;;-2.20;89.30;;;-2.80;80.24;97406.00;5049529;28;20504;-71
2023/02/26 01:47:16;;;;;;;5.57;2.47;;;-2.30;89.30;;;-2.73;79.51;97404.44;5049808;28;20440;-69
2023/02/26 01:49:44;;;;;;;4.53;2.17;;;-2.30;89.10;;;-2.77;80.03;97403.06;5049648;28;20460;-70
2023/02/26 01:53:16;;;;;;;7.50;2.33;;;-2.30;88.80;;;-2.89;80.13;97405.91;5050438;28;20467;-69
2023/02/26 01:55:46;;;;;;;3.60;2.50;;;-2.30;88.80;;;-2.93;80.68;97409.81;5046186;28;20543;-70
2023/02/26 01:58:13;;;;;;;3.07;2.77;;;-2.30;90.10;;;-3.35;81.05;97347.59;5050464;28;20443;-73
2023/02/26 02:00:40;;;;;;;5.10;2.30;;;-2.40;90.20;;;-2.89;80.60;97415.63;5048765;28;20506;-70
2023/02/26 02:03:10;;;;;;;5.80;2.73;;;-2.40;90.70;;;-3.46;81.39;97345.97;5047890;28;20458;-70
2023/02/26 02:05:43;;;;;;;5.10;2.40;;;-2.50;90.50;;;-3.17;81.01;97403.19;5028196;28;20446;-71
2023/02/26 02:08:12;;;;;;;4.50;2.57;;;-2.50;90.70;;;-3.06;81.63;97419.88;5030022;28;20887;-71
2023/02/26 02:10:44;;;;;;;3.33;2.30;;;-2.50;91.10;;;-3.05;80.79;97416.25;5029831;28;20922;-71
2023/02/26 02:13:30;;;;;;;2.43;2.23;;;-2.60;91.00;;;-3.11;81.08;97422.09;5062497;28;20996;-69
2023/02/26 02:16:12;;;;;;;4.70;2.23;;;-2.60;91.10;;;-3.19;81.60;97414.88;5063811;28;20449;-71
2023/02/26 02:18:54;;;;;;;4.13;2.20;;;-2.60;90.50;;;-3.32;81.19;97399.34;5065721;28;20474;-72
2023/02/26 02:21:54;;;;;;;3.47;2.20;;;-2.60;90.40;;;-3.19;80.68;97426.28;5049110;28;20800;-69
2023/02/26 02:24:35;;;;;;;4.80;2.37;;;-2.60;89.80;;;-3.25;80.74;97426.88;5049422;28;20506;-71
2023/02/26 02:27:13;;;;;;;7.40;1.90;;;-2.60;89.70;;;-3.31;80.84;97425.63;5049320;28;20528;-71
2023/02/26 02:30:25;;;;;;;2.47;1.23;;;-2.60;89.50;;;-3.38;80.18;97415.78;5048386;28;20492;-71
2023/02/26 02:33:00;;;;;;;2.60;1.60;;;-2.60;88.50;;;-3.37;80.36;97433.28;5064537;28;20443;-71
2023/02/26 02:35:34;;;;;;;1.53;1.27;;;-2.60;88.00;;;-3.30;80.10;97434.38;5049235;28;20451;-69
2023/02/26 02:38:08;;;;;;;3.47;2.47;;;-2.60;88.00;;;-3.36;80.27;97432.31;5030123;28;20448;-69
2023/02/26 02:40:40;;;;;;;3.60;1.90;;;-2.70;87.60;;;-3.25;79.84;97448.03;5029412;28;20462;-70
2023/02/26 02:43:12;;;;;;;3.23;1.50;;;-2.70;87.80;;;-3.24;79.82;97439.13;5029881;28;20456;-71
2023/02/26 02:45:44;;;;;;;1.53;1.47;;;-2.70;87.90;;;-3.34;79.47;97433.81;5028061;28;20692;-71
2023/02/26 02:48:20;;;;;;;2.20;1.97;;;-2.70;87.90;;;-3.30;79.79;97442.31;5030223;28;20440;-69
2023/02/26 02:50:52;;;;;;;2.73;1.47;;;-2.70;87.30;;;-3.20;79.17;97440.50;5047150;28;20499;-71
2023/02/26 02:53:24;;;;;;;2.50;1.57;;;-2.60;87.20;;;-3.18;79.25;97443.81;5049280;28;20459;-72
2023/02/26 02:55:58;;;;;;;5.13;1.80;;;-2.60;86.50;;;-3.23;79.16;97446.06;5047726;28;20461;-71
2023/02/26 02:58:31;;;;;;;3.63;1.80;;;-2.60;86.90;;;-3.07;78.89;97442.81;5042597;28;20443;-69
2023/02/26 03:01:04;;;;;;;6.33;1.93;;;-2.50;86.90;;;-3.01;78.31;97430.84;5047362;28;20985;-69
2023/02/26 03:03:39;;;;;;;2.10;1.90;;;-2.40;86.00;;;-2.81;78.13;97466.00;5049039;28;20534;-70
2023/02/26 03:06:07;;;;;;;5.20;1.80;;;-2.30;84.40;;;-2.88;77.67;97460.44;5063801;28;20446;-70
2023/02/26 03:08:40;;;;;;;2.93;1.30;;;-2.30;84.00;;;-2.92;77.56;97456.44;5064081;28;20517;-70
2023/02/26 03:11:08;;;;;;;4.30;1.37;;;-2.30;83.70;;;-3.56;78.13;97387.44;5047094;28;20443;-69
2023/02/26 03:13:36;;;;;;;1.60;1.50;;;-2.40;84.00;;;-3.03;78.27;97461.88;5040551;28;20447;-70
2023/02/26 03:16:20;;;;;;;4.33;2.50;;;-2.40;84.70;;;-3.06;78.18;97462.16;5062693;28;20901;-68
2023/02/26 03:18:57;;;;;;;3.00;1.63;;;-2.50;84.40;;;-3.33;79.25;97469.00;5047854;28;21037;-70
2023/02/26 03:21:31;;;;;;;3.33;1.70;;;-2.60;84.70;;;-3.26;79.43;97472.78;5047132;28;20997;-70
2023/02/26 03:24:04;;;;;;;5.13;1.67;;;-2.70;86.60;;;-3.34;79.20;97470.00;5048370;28;20473;-71
2023/02/26 03:26:40;;;;;;;3.50;1.87;;;-2.70;86.60;;;-3.45;79.43;97479.72;5046514;28;20452;-70
2023/02/26 03:29:16;;;;;;;2.90;1.77;;;-2.80;87.20;;;-3.39;79.28;97478.34;5049073;28;20452;-69
2023/02/26 03:31:50;;;;;;;3.33;1.70;;;-2.80;87.70;;;-3.45;79.42;97482.38;5063097;28;20462;-72
2023/02/26 03:34:27;;;;;;;2.20;1.30;;;-2.90;87.60;;;-3.45;79.59;97487.66;5048243;28;20504;-69
2023/02/26 03:36:59;;;;;;;2.37;1.67;;;-2.90;88.50;;;-3.62;80.43;97489.19;5060152;28;20461;-69
2023/02/26 03:39:31;;;;;;;3.10;1.60;;;-2.90;88.00;;;-3.55;80.40;97489.47;5028818;28;20449;-72
2023/02/26 03:42:04;;;;;;;3.50;1.80;;;-2.90;88.80;;;-3.58;80.01;97495.00;5027829;28;20574;-71
2023/02/26 03:44:37;;;;;;;3.50;1.80;;;-2.90;88.50;;;-3.52;79.97;97499.75;5027286;28;20515;-69
2023/02/26 03:47:08;;;;;;;1.40;1.20;;;-2.90;88.60;;;-3.60;80.04;97481.13;5055566;28;20903;-71
2023/02/26 03:49:43;;;;;;;2.70;1.73;;;-2.90;88.60;;;-3.49;79.68;97498.63;5045388;28;20462;-71
2023/02/26 03:52:12;;;;;;;2.43;1.27;;;-2.90;88.10;;;-3.64;80.35;97501.72;5050332;28;20463;-68
2023/02/26 03:54:45;;;;;;;3.63;1.70;;;-3.00;88.70;;;-3.59;80.50;97501.28;5057702;28;20451;-70
2023/02/26 03:57:13;;;;;;;3.60;1.60;;;-3.00;89.00;;;-3.59;80.44;97502.13;5059214;28;20507;-69
2023/02/26 03:59:40;;;;;;;2.27;1.23;;;-2.90;88.90;;;-3.54;80.35;97507.00;5047814;28;20434;-70
2023/02/26 04:02:15;;;;;;;6.37;1.40;;;-3.00;88.40;;;-3.53;79.98;97505.16;5063132;28;20439;-70
2023/02/26 04:04:50;;;;;;;1.60;1.50;;;-2.90;88.70;;;-3.68;80.19;97499.47;5062555;28;20470;-70
2023/02/26 04:07:18;;;;;;;3.43;1.30;;;-2.90;88.50;;;-3.46;80.45;97516.88;5047326;28;20508;-70
2023/02/26 04:09:49;;;;;;;2.10;1.47;;;-2.90;88.40;;;-3.35;80.08;97526.47;5062823;28;20480;-70
2023/02/26 04:12:22;;;;;;;6.13;1.83;;;-2.80;88.30;;;-3.27;79.74;97526.56;5062540;28;20442;-71
2023/02/26 04:14:49;;;;;;;3.80;1.27;;;-2.70;87.90;;;-3.06;78.91;97520.31;5043502;28;20467;-72
2023/02/26 04:17:17;;;;;;;1.70;1.30;;;-2.50;87.20;;;-2.94;77.86;97519.19;5046031;28;20450;-71
2023/02/26 04:19:46;;;;;;;3.37;1.60;;;-2.40;85.20;;;-2.93;77.79;97517.38;5047579;28;21039;-70
2023/02/26 04:22:13;;;;;;;2.43;1.47;;;-2.30;84.10;;;-2.77;77.38;97530.00;5062325;28;20455;-71
2023/02/26 04:24:40;;;;;;;2.53;1.50;;;-2.20;83.50;;;-2.85;77.30;97506.94;5045686;28;20477;-70
2023/02/26 04:27:07;;;;;;;3.30;1.37;;;-2.20;83.10;;;-2.69;76.57;97532.75;5062719;28;20440;-72
2023/02/26 04:29:36;;;;;;;2.23;1.40;;;-2.10;82.80;;;-2.71;77.05;97542.66;5062419;28;20495;-69
2023/02/26 04:32:04;;;;;;;1.30;1.20;;;-2.10;81.80;;;-2.71;77.10;97540.84;5062265;28;20445;-69
2023/02/26 04:34:31;;;;;;;3.13;1.40;;;-2.10;81.90;;;-2.75;76.53;97534.16;5045256;28;20439;-70
2023/02/26 04:37:00;;;;;;;3.00;1.77;;;-2.10;81.40;;;-2.75;76.47;97536.00;5047026;28;20432;-71
2023/02/26 04:39:27;;;;;;;2.80;1.40;;;-2.10;80.10;;;-2.71;76.65;97542.66;5063189;28;20494;-69
2023/02/26 04:41:54;;;;;;;2.00;1.27;;;-2.10;80.60;;;-2.56;76.43;97546.50;5068982;28;21302;-70
2023/02/26 04:44:21;;;;;;;2.70;1.27;;;-2.00;80.60;;;-2.54;75.69;97558.75;5062139;28;20555;-69
2023/02/26 04:46:48;;;;;;;3.70;1.30;;;-2.00;80.30;;;-2.54;75.85;97556.13;5046971;28;21233;-70
2023/02/26 04:49:16;;;;;;;5.40;1.70;;;-1.90;79.80;;;-2.61;76.04;97556.69;5046995;28;20501;-69
2023/02/26 04:51:43;;;;;;;5.97;1.73;;;-2.00;79.60;;;-2.70;76.25;97562.81;5046166;28;20509;-69
2023/02/26 04:54:11;;;;;;;1.87;1.40;;;-2.00;79.70;;;-2.53;75.56;97558.63;5041625;28;20971;-70
2023/02/26 04:56:38;;;;;;;1.33;1.10;;;-1.90;79.70;;;-2.52;76.01;97554.16;5025681;28;20433;-71
2023/02/26 04:59:06;;;;;;;2.00;1.23;;;-1.90;79.90;;;-2.24;74.57;97576.22;5027226;28;20452;-70
2023/02/26 05:01:33;;;;;;;4.03;1.50;;;-1.80;79.40;;;-2.72;74.26;97523.31;5025330;28;20448;-70
2023/02/26 05:04:01;;;;;;;3.83;1.50;;;-1.70;78.60;;;-2.40;74.48;97579.47;5050820;28;20454;-68
2023/02/26 05:06:28;;;;;;;5.60;1.30;;;-1.80;78.40;;;-2.42;74.40;97576.13;5047731;28;20447;-70
2023/02/26 05:08:55;;;;;;;1.80;1.20;;;-1.80;78.40;;;-2.42;74.87;97579.63;5058049;28;20522;-69
2023/02/26 05:11:24;;;;;;;2.10;1.27;;;-1.80;78.60;;;-2.28;74.60;97588.91;5076229;28;20493;-71
2023/02/26 05:13:51;;;;;;;3.57;1.50;;;-1.80;78.70;;;-2.34;74.74;97594.78;5068657;28;20556;-71
2023/02/26 05:16:18;;;;;;;5.80;1.73;;;-1.70;78.70;;;-2.31;74.64;97602.44;5045139;28;20505;-69
2023/02/26 05:18:45;;;;;;;5.70;1.97;;;-1.70;78.60;;;-2.13;74.49;97596.38;5047194;28;20502;-70
2023/02/26 05:21:12;;;;;;;1.50;1.40;;;-1.70;78.90;;;-2.17;74.16;97593.19;5046600;28;20465;-71
2023/02/26 05:23:40;;;;;;;3.20;1.43;;;-1.60;78.50;;;-2.05;73.34;97604.41;5046201;28;20502;-70
2023/02/26 05:26:07;;;;;;;2.80;1.73;;;-1.60;78.10;;;-2.17;73.97;97610.91;5046036;28;20959;-71
2023/02/26 05:28:36;;;;;;;2.67;1.57;;;-1.60;78.40;;;-2.09;74.44;97597.75;5046901;28;20434;-71
2023/02/26 05:31:04;;;;;;;3.90;1.70;;;-1.60;78.70;;;-1.96;74.21;97607.19;5046004;28;20540;-71
2023/02/26 05:33:31;;;;;;;2.73;1.70;;;-1.60;78.70;;;-1.98;74.44;97603.84;5047299;28;20463;-69
2023/02/26 05:35:58;;;;;;;2.60;1.73;;;-1.50;78.60;;;-1.94;73.45;97607.88;5045825;28;20451;-68
2023/02/26 05:38:26;;;;;;;2.80;2.07;;;-1.50;78.30;;;-2.05;74.06;97604.41;5043675;28;20451;-71
2023/02/26 05:40:57;;;;;;;4.37;1.57;;;-1.50;78.30;;;-2.05;74.19;97604.41;5061653;28;20445;-68
2023/02/26 05:43:25;;;;;;;1.63;1.53;;;-1.50;78.40;;;-2.03;74.32;97612.22;5050795;28;20447;-70
2023/02/26 05:45:54;;;;;;;5.80;1.50;;;-1.40;78.40;;;-2.06;74.29;97607.22;5047329;28;20880;-70
2023/02/26 05:48:21;;;;;;;1.87;1.43;;;-1.50;78.50;;;-2.20;74.54;97612.00;5050399;28;20455;-69
2023/02/26 05:50:49;;;;;;;1.93;1.13;;;-1.50;78.40;;;-2.12;74.85;97619.22;5049847;28;20557;-71
2023/02/26 05:53:17;;;;;;;3.30;1.80;;;-1.60;78.80;;;-2.11;75.43;97622.72;5050186;28;20451;-71
2023/02/26 05:55:44;;;;;;;1.77;1.67;;;-1.50;79.60;;;-2.21;75.47;97604.19;5047785;28;20529;-71
2023/02/26 05:58:12;;;;;;;1.90;1.60;;;-1.50;79.20;;;-2.19;75.47;97623.44;5050724;28;20507;-73
2023/02/26 06:00:39;;;;;;;3.17;1.50;;;-1.60;79.40;;;-2.14;75.50;97618.53;5048908;28;20452;-70
2023/02/26 06:03:07;;;;;;;2.40;1.23;;;-1.60;79.50;;;-2.19;75.46;97623.44;5063615;28;20515;-71
2023/02/26 06:05:36;;;;;;;4.07;1.27;;;-1.60;79.30;;;-2.30;75.44;97604.09;5049170;28;20511;-72
2023/02/26 06:08:04;;;;;;;2.40;1.30;;;-1.60;79.60;;;-2.26;75.77;97631.13;5050693;28;20431;-70
2023/02/26 06:10:31;;;;;;;2.67;1.43;;;-1.60;79.90;;;-2.24;76.19;97636.25;5050429;28;20448;-67
2023/02/26 06:12:58;;;;;;;2.40;1.30;;;-1.60;80.20;;;-2.21;76.40;97635.97;5066293;28;20451;-70
2023/02/26 06:15:25;;;;;;;2.07;1.60;;;-1.50;80.70;;;-2.24;76.01;97636.25;5048464;28;20456;-72
2023/02/26 06:17:52;;;;;;;3.40;1.60;;;-1.60;80.70;;;-2.33;76.88;97649.38;5050001;28;20447;-70
2023/02/26 06:20:21;;;;;;;2.20;1.30;;;-1.60;81.10;;;-2.22;77.13;97639.59;5050440;28;20447;-67
2023/02/26 06:22:48;;;;;;;2.23;1.23;;;-1.60;81.80;;;-1.85;81.60;97647.53;5064498;28;20950;-70
2023/02/26 06:25:16;;;;;;;3.23;1.60;;;-1.40;90.40;;;-2.07;77.75;97646.09;5033381;28;20480;-71
2023/02/26 06:27:43;;;;;;;1.40;1.30;;;-1.40;84.60;;;-2.03;77.60;97650.16;5064435;28;20957;-71
2023/02/26 06:30:12;;;;;;;2.67;1.20;;;-1.40;82.80;;;-2.04;76.68;97645.81;5065537;28;21022;-71
2023/02/26 06:32:39;;;;;;;2.40;1.10;;;-1.40;82.30;;;-2.00;77.08;97651.66;5047799;28;21073;-71
2023/02/26 06:35:08;;;;;;;1.97;1.47;;;-1.40;82.60;;;-2.03;76.60;97650.16;5067529;28;20453;-70
2023/02/26 06:37:37;;;;;;;3.47;1.50;;;-1.40;82.00;;;-2.04;76.47;97648.47;5066767;28;20524;-69
2023/02/26 06:40:05;;;;;;;4.00;1.77;;;-1.40;82.00;;;-2.03;77.23;97663.38;5051967;28;20470;-71
2023/02/26 06:42:33;;;;;;;4.47;1.47;;;-1.40;82.20;;;-2.08;77.42;97668.25;5051922;28;20495;-70
2023/02/26 06:45:00;;;;;;;2.20;1.37;;;-1.40;82.70;;;-1.94;77.11;97674.91;5061524;28;20465;-71
2023/02/26 06:47:27;;;;;;;1.63;1.30;;;-1.40;83.00;;;-1.89;76.66;97679.78;5029432;28;20441;-72
2023/02/26 06:49:54;;;;;;;4.20;1.80;;;-1.30;82.80;;;-1.90;76.56;97680.75;5036271;28;20775;-71
2023/02/26 06:52:21;;;;;;;1.87;1.50;;;-1.30;82.10;;;-1.95;76.57;97688.28;5057121;28;20454;-70
2023/02/26 06:54:50;;;;;;;2.50;1.80;;;-1.30;82.10;;;-1.97;76.82;97700.84;5059091;28;20574;-72
2023/02/26 06:57:17;;;;;;;5.23;1.60;;;-1.40;82.70;;;-1.92;77.05;97699.44;5075322;28;20460;-68
2023/02/26 06:59:45;;;;;;;4.77;1.83;;;-1.40;82.90;;;-1.83;77.43;97708.34;5050195;28;20472;-69
2023/02/26 07:02:17;;;;;;;7.03;1.57;;;-1.30;83.60;;;-1.88;76.83;97715.88;5048499;28;20444;-71
2023/02/26 07:04:44;;;;;;;4.30;1.83;;;-1.30;82.40;;;-1.77;76.84;97712.22;5048783;28;20453;-71
2023/02/26 07:07:12;;;;;;;2.83;1.70;;;-1.30;82.80;;;-2.00;76.90;97729.28;5064117;28;20895;-73
2023/02/26 07:09:39;;;;;;;2.00;1.03;;;-1.30;82.30;;;-2.17;77.82;97727.38;5049022;28;20449;-72
2023/02/26 07:12:08;;;;;;;5.73;1.80;;;-1.50;82.90;;;-2.15;78.11;97722.75;5063911;28;20452;-70
2023/02/26 07:14:35;;;;;;;4.77;1.50;;;-1.50;84.00;;;-2.12;77.98;97743.66;5047849;28;20501;-71
2023/02/26 07:17:03;;;;;;;3.37;1.87;;;-1.50;84.00;;;-2.17;77.95;97745.91;5063692;28;20496;-72
2023/02/26 07:19:31;;;;;;;4.30;1.80;;;-1.50;84.30;;;-2.07;77.81;97748.53;5064419;28;20512;-70
2023/02/26 07:21:58;;;;;;;2.63;2.03;;;-1.50;84.90;;;-2.32;77.79;97680.16;5043281;28;20508;-70
2023/02/26 07:24:25;;;;;;;5.30;2.00;;;-1.40;85.50;;;-1.81;77.35;97754.06;5041222;28;20460;-69
2023/02/26 07:26:53;;;;;;;3.50;1.90;;;-1.30;84.10;;;-1.64;76.54;97755.13;5062392;28;20487;-70
2023/02/26 07:29:21;;;;;;;3.50;2.10;;;-1.20;83.30;;;-1.45;76.17;97759.50;5064455;28;20481;-71
2023/02/26 07:31:48;;;;;;;4.30;1.73;;;-0.90;82.60;;;-1.13;75.90;97767.22;5061823;28;20470;-73
2023/02/26 07:34:16;;;;;;;5.67;2.20;;;-0.70;81.90;;;-1.15;74.82;97765.53;5063902;28;20451;-73
2023/02/26 07:36:43;;;;;;;2.10;1.67;;;-0.60;80.30;;;-0.89;74.54;97764.84;5051146;28;20461;-71
2023/02/26 07:39:11;;;;;;;2.90;1.80;;;-0.40;79.90;;;-0.86;73.24;97739.84;5064286;28;20495;-71
2023/02/26 07:41:39;;;;;;;7.47;1.90;;;-0.20;78.60;;;-0.80;74.79;97768.41;5047626;28;20449;-72
2023/02/26 07:44:06;;;;;;;2.80;2.27;;;-0.10;79.10;;;-0.84;74.66;97776.81;5063393;28;20537;-70
2023/02/26 07:46:35;;;;;;;2.67;1.70;;;-0.20;78.90;;;-0.63;74.56;97773.88;5047588;28;20472;-72
2023/02/26 07:49:02;;;;;;;4.03;1.93;;;-0.10;79.30;;;-0.50;74.82;97778.84;5048291;28;20447;-70
2023/02/26 07:51:29;;;;;;;3.63;1.90;;;0.10;79.60;;;-0.44;73.47;97778.22;5063347;28;20843;-70
2023/02/26 07:53:56;;;;;;;2.50;1.77;;;0.20;78.70;;;-0.75;73.77;97721.06;5047776;28;20925;-71
2023/02/26 07:56:24;;;;;;;2.37;2.00;;;0.10;78.70;;;-0.49;74.22;97789.28;5062352;28;21114;-72
2023/02/26 07:58:51;;;;;;;2.20;2.00;;;0.10;79.30;;;-0.49;74.52;97796.44;5063315;28;20457;-72
2023/02/26 08:01:18;;;;;;;2.73;1.87;;;0.20;79.00;;;-0.43;74.05;97791.38;5046195;28;20453;-70
2023/02/26 08:03:47;;;;;;;2.70;1.80;;;0.20;79.10;;;-0.24;74.48;97791.34;5044181;28;20876;-71
2023/02/26 08:06:14;;;;;;;5.10;2.00;;;0.30;79.60;;;-0.39;74.02;97797.19;5061998;28;21488;-72
2023/02/26 08:08:42;;;;;;;2.20;1.70;;;0.40;78.70;;;-0.49;75.16;97799.09;5048008;28;20827;-72
2023/02/26 08:11:09;;;;;;;3.13;1.90;;;0.30;78.90;;;-0.58;74.47;97804.31;5062342;28;20524;-71
2023/02/26 08:13:36;;;;;;;3.60;2.10;;;0.20;79.00;;;-0.36;74.78;97796.06;5048021;28;20446;-72
2023/02/26 08:16:03;;;;;;;3.43;2.27;;;0.30;79.40;;;-0.04;74.70;97795.53;5061251;28;20445;-69
2023/02/26 08:18:31;;;;;;;3.57;1.73;;;0.40;79.50;;;-0.07;73.17;97810.94;5052450;28;20790;-70
2023/02/26 08:20:59;;;;;;;3.80;2.10;;;0.60;78.40;;;0.08;73.30;97816.56;5028784;28;20541;-72
2023/02/26 08:23:26;;;;;;;3.40;1.73;;;0.60;78.20;;;0.16;72.62;97811.28;5047892;28;20513;-73
2023/02/26 08:26:01;;;;;;;2.60;2.30;;;0.70;77.90;;;0.34;72.45;97807.75;5044868;28;20469;-71
2023/02/26 08:28:29;;;;;;;5.23;2.10;;;0.80;77.90;;;0.50;71.12;97813.19;5052559;28;20773;-72
2023/02/26 08:30:56;;;;;;;2.90;1.50;;;1.00;77.00;;;0.55;70.16;97816.22;5062419;28;20449;-71
2023/02/26 08:33:24;;;;;;;1.80;1.70;;;1.10;76.00;;;0.54;68.67;97814.56;5046418;28;20444;-68
2023/02/26 08:35:52;;;;;;;2.10;1.90;;;1.10;75.00;;;0.41;68.59;97828.25;5046225;28;21233;-72
2023/02/26 08:38:21;;;;;;;1.90;1.80;;;1.10;74.10;;;0.17;67.08;97830.75;5048533;28;20544;-70
2023/02/26 08:40:51;;;;;;;5.10;1.90;;;1.00;72.50;;;0.16;68.10;97829.88;5031195;28;20977;-70
2023/02/26 08:43:18;;;;;;;1.80;1.70;;;0.90;73.40;;;-0.13;67.95;97838.13;5047233;28;20463;-71
2023/02/26 08:45:45;;;;;;;2.07;1.90;;;0.70;72.10;;;-0.23;67.69;97833.69;5050157;28;20462;-73
2023/02/26 08:48:14;;;;;;;2.27;2.03;;;0.50;72.00;;;-0.10;66.92;97843.13;5052203;28;20457;-72
2023/02/26 08:50:41;;;;;;;1.70;1.57;;;0.60;72.00;;;-0.17;66.53;97848.19;5062106;28;20532;-70
2023/02/26 08:53:08;;;;;;;1.67;1.57;;;0.60;71.70;;;0.03;66.69;97858.66;5046980;28;20503;-69
2023/02/26 08:55:37;;;;;;;2.07;1.77;;;0.60;72.00;;;0.12;66.70;97855.09;5046146;28;20444;-72
2023/02/26 08:58:04;;;;;;;2.00;1.40;;;0.80;71.80;;;0.30;65.65;97864.88;5063460;28;20530;-72
2023/02/26 09:00:32;;;;;;;2.63;1.80;;;1.00;71.30;;;0.23;65.71;97877.94;5045802;28;20466;-68
2023/02/26 09:03:00;;;;;;;1.40;1.30;;;1.00;70.80;;;0.17;67.79;97887.34;5040354;28;20445;-68
2023/02/26 09:05:27;;;;;;;2.30;1.50;;;0.90;72.10;;;0.06;68.38;97875.16;5045019;28;20526;-68
2023/02/26 09:07:54;;;;;;;1.77;1.63;;;0.80;72.90;;;0.10;68.48;97881.00;5047325;28;20448;-71
2023/02/26 09:10:21;;;;;;;1.50;1.40;;;0.80;73.00;;;0.26;67.15;97888.25;5048608;28;20450;-73
2023/02/26 09:12:50;;;;;;;2.10;1.90;;;0.90;72.10;;;0.23;66.95;97893.88;5062993;28;20513;-72
2023/02/26 09:15:18;;;;;;;2.20;1.60;;;0.90;71.80;;;0.17;67.14;97895.31;5046935;28;20448;-70
2023/02/26 09:17:46;;;;;;;2.10;1.83;;;0.90;72.00;;;0.39;68.60;97902.00;5048661;28;20441;-69
2023/02/26 09:20:15;;;;;;;1.40;1.30;;;1.00;73.00;;;0.51;67.68;97891.97;5031948;28;20441;-73
2023/02/26 09:22:43;;;;;;;1.50;1.40;;;1.10;72.50;;;0.41;66.24;97900.03;5061070;28;20506;-71
2023/02/26 09:25:11;;;;;;;1.80;1.60;;;1.10;71.00;;;0.87;66.72;97896.38;5065041;28;20437;-70
2023/02/26 09:27:38;;;;;;;1.60;1.40;;;1.40;72.30;;;1.11;64.34;97897.53;5050366;28;20514;-71
2023/02/26 09:30:09;;;;;;;1.67;1.50;;;1.70;70.70;;;1.33;64.43;97904.13;5065798;28;20538;-71
2023/02/26 09:32:36;;;;;;;1.43;1.33;;;2.00;70.90;;;1.49;61.47;97897.19;5065405;28;20452;-71
2023/02/26 09:35:05;;;;;;;1.30;1.20;;;2.10;67.70;;;1.80;61.47;97900.13;5062313;28;20824;-70
2023/02/26 09:37:32;;;;;;;1.10;1.00;;;2.30;68.00;;;1.92;59.76;97910.47;5036717;28;20453;-69
2023/02/26 09:39:59;;;;;;;0.93;0.83;;;2.50;66.40;;;1.59;59.49;97902.38;5049796;28;20444;-70
2023/02/26 09:42:44;;;;;;;0.93;0.90;;;2.40;64.80;;;1.73;59.34;97923.09;5048431;28;20505;-72
2023/02/26 09:45:28;;;;;;;1.47;1.03;;;2.40;64.70;;;1.46;59.29;97927.63;5052244;28;20458;-73
2023/02/26 09:47:58;;;;;;;1.10;0.80;;;2.20;63.90;;;1.63;58.92;97925.03;5065850;28;20516;-70
2023/02/26 09:50:33;;;;;;;1.00;1.00;;;2.20;63.90;;;1.28;57.73;97866.47;5070200;28;20452;-69
2023/02/26 09:53:08;;;;;;;1.17;1.03;;;2.30;62.40;;;1.82;57.50;97934.59;5067678;28;20441;-70
2023/02/26 09:55:42;;;;;;;1.17;0.90;;;2.40;62.50;;;1.73;57.03;97930.22;5065278;28;20456;-71
2023/02/26 09:58:17;;;;;;;0.93;0.73;;;2.40;62.00;;;1.48;57.74;97944.28;5050517;28;20441;-71
2023/02/26 10:00:59;;;;;;;2.60;1.40;;;2.30;61.70;;;1.26;57.89;97943.84;5049616;28;20444;-71
2023/02/26 10:03:33;;;;;;;1.23;0.90;;;2.00;61.30;;;1.44;58.40;97942.94;5048872;28;20445;-72
2023/02/26 10:06:19;;;;;;;0.90;0.90;;;2.10;62.10;;;1.38;57.49;97962.22;5049070;28;20717;-72
2023/02/26 10:09:16;;;;;;;1.00;0.90;;;2.00;60.60;;;1.53;56.54;97946.47;5050518;28;20572;-73
2023/02/26 10:11:51;;;;;;;1.03;0.87;;;2.10;59.90;;;1.80;56.01;97941.94;5051220;28;20448;-72
2023/02/26 10:14:24;;;;;;;1.77;0.83;;;2.40;59.50;;;1.62;55.82;97940.19;5064818;28;20452;-71
2023/02/26 10:16:58;;;;;;;1.50;0.90;;;2.30;58.70;;;1.87;55.68;97948.25;5047906;28;20844;-70
2023/02/26 10:19:29;;;;;;;0.93;0.63;;;2.40;58.90;;;1.94;54.88;97957.31;5057200;28;20546;-71
2023/02/26 10:22:02;;;;;;;0.90;0.80;;;2.50;58.30;;;1.84;55.15;97959.25;5048997;28;20473;-73
2023/02/26 10:24:39;;;;;;;1.57;1.00;;;2.50;58.50;;;1.67;55.25;97961.03;5046811;28;20496;-72
2023/02/26 10:27:11;;;;;;;1.57;0.90;;;2.40;58.10;;;1.96;54.47;97960.63;5063134;28;20761;-74
2023/02/26 10:29:45;;;;;;;1.97;0.77;;;2.50;57.80;;;1.75;54.43;97968.22;5044353;28;20454;-71
2023/02/26 10:32:25;;;;;;;2.40;0.60;;;2.50;57.10;;;1.23;54.39;97911.38;5029396;28;20457;-71
2023/02/26 10:34:57;;;;;;;4.73;1.10;;;2.40;56.70;;;1.62;53.87;97976.63;5029327;28;20520;-70
2023/02/26 10:37:46;;;;;;;1.67;0.83;;;2.30;55.90;;;1.62;54.00;97972.16;5029256;28;20499;-68